createdAt,value
2019-03-22T00:02:59.550Z,2.40
2019-03-22T00:05:59.961Z,2.30
2019-03-22T00:09:00.304Z,2.20
2019-03-22T00:12:00.778Z,2.20
2019-03-22T00:15:01.245Z,2.20
2019-03-22T00:18:01.741Z,2.20
2019-03-22T00:21:02.682Z,2.20
2019-03-22T00:24:03.027Z,2.20
2019-03-22T00:27:03.329Z,2.10
2019-03-22T00:30:04.106Z,2.10
2019-03-22T00:33:05.267Z,2.10
2019-03-22T00:36:05.567Z,2.00
2019-03-22T00:39:06.377Z,1.90
2019-03-22T00:42:06.704Z,1.90
2019-03-22T00:45:07.122Z,2.00
2019-03-22T00:48:08.334Z,1.90
2019-03-22T00:51:08.630Z,1.90
2019-03-22T00:54:09.005Z,1.80
2019-03-22T00:57:09.345Z,1.80
2019-03-22T01:00:09.757Z,1.70
2019-03-22T01:03:10.134Z,1.70
2019-03-22T01:06:10.449Z,1.70
2019-03-22T01:09:11.174Z,1.60
2019-03-22T01:12:12.350Z,1.60
2019-03-22T01:15:12.808Z,1.60
2019-03-22T01:18:13.910Z,1.50
2019-03-22T01:21:14.310Z,1.50
2019-03-22T01:24:14.642Z,1.50
2019-03-22T01:27:15.035Z,1.50
2019-03-22T01:30:15.313Z,1.40
2019-03-22T01:33:15.794Z,1.40
2019-03-22T01:36:16.442Z,1.40
2019-03-22T01:39:16.862Z,1.40
2019-03-22T01:42:18.129Z,1.40
2019-03-22T01:45:19.720Z,1.80
2019-03-22T01:48:20.325Z,2.00
2019-03-22T01:51:21.662Z,2.20
2019-03-22T01:54:23.243Z,2.20
2019-03-22T01:57:24.183Z,2.20
2019-03-22T02:00:25.141Z,2.30
2019-03-22T02:03:25.779Z,2.30
2019-03-22T02:06:26.434Z,2.40
2019-03-22T02:09:27.623Z,2.30
2019-03-22T02:12:28.520Z,2.30
2019-03-22T02:15:29.797Z,2.30
2019-03-22T02:18:30.777Z,2.30
2019-03-22T02:21:31.962Z,2.30
2019-03-22T02:24:32.606Z,2.30
2019-03-22T02:27:33.555Z,2.30
2019-03-22T02:30:34.391Z,2.20
2019-03-22T02:33:35.039Z,2.20
2019-03-22T02:36:36.285Z,2.20
2019-03-22T02:39:37.065Z,2.20
2019-03-22T02:42:39.220Z,2.20
2019-03-22T02:45:27.857Z,2.10
2019-03-22T02:48:35.929Z,2.10
2019-03-22T02:51:37.166Z,2.10
2019-03-22T02:54:38.022Z,2.10
2019-03-22T02:57:40.671Z,2.10
2019-03-22T03:00:41.923Z,2.10
2019-03-22T03:03:42.982Z,2.00
2019-03-22T03:06:44.007Z,2.00
2019-03-22T03:09:45.222Z,2.00
2019-03-22T03:12:46.229Z,1.90
2019-03-22T03:15:46.969Z,1.80
2019-03-22T03:18:48.069Z,1.80
2019-03-22T03:21:49.457Z,1.70
2019-03-22T03:24:50.818Z,1.70
2019-03-22T03:27:52.093Z,1.50
2019-03-22T03:30:52.779Z,1.60
2019-03-22T03:33:53.265Z,1.60
2019-03-22T03:36:53.769Z,1.70
2019-03-22T03:39:55.323Z,1.50
2019-03-22T03:42:56.287Z,1.70
2019-03-22T03:45:57.146Z,1.60
2019-03-22T03:48:57.570Z,1.70
2019-03-22T03:51:58.471Z,1.70
2019-03-22T03:54:59.527Z,1.60
2019-03-22T03:58:00.221Z,1.60
2019-03-22T04:01:01.175Z,1.50
2019-03-22T04:04:02.086Z,1.50
2019-03-22T04:07:03.051Z,1.50
2019-03-22T04:10:03.859Z,1.40
2019-03-22T04:13:05.431Z,1.50
2019-03-22T04:16:06.129Z,1.50
2019-03-22T04:19:07.254Z,1.50
2019-03-22T04:22:08.365Z,1.40
2019-03-22T04:25:09.262Z,1.40
2019-03-22T04:28:09.892Z,1.40
2019-03-22T04:31:10.822Z,1.30
2019-03-22T04:34:11.670Z,1.40
2019-03-22T04:37:12.464Z,1.30
2019-03-22T04:40:13.401Z,1.20
2019-03-22T04:43:14.022Z,1.20
2019-03-22T04:46:15.098Z,1.30
2019-03-22T04:49:15.674Z,1.20
2019-03-22T04:52:16.786Z,1.30
2019-03-22T04:55:17.534Z,1.20
2019-03-22T04:58:18.393Z,1.20
2019-03-22T05:01:19.566Z,1.20
2019-03-22T05:04:20.965Z,1.20
2019-03-22T05:07:22.703Z,1.10
2019-03-22T05:10:23.546Z,1.10
2019-03-22T05:13:24.171Z,1.10
2019-03-22T05:16:24.985Z,1.10
2019-03-22T05:19:26.219Z,1.10
2019-03-22T05:22:27.398Z,1.10
2019-03-22T05:25:28.927Z,1.10
2019-03-22T05:28:29.638Z,1.10
2019-03-22T05:31:30.718Z,1.00
2019-03-22T05:34:31.569Z,0.90
2019-03-22T05:37:32.618Z,1.10
2019-03-22T05:40:33.344Z,1.10
2019-03-22T05:43:34.118Z,1.10
2019-03-22T05:46:34.714Z,1.10
2019-03-22T05:49:35.593Z,1.00
2019-03-22T05:52:36.055Z,1.10
2019-03-22T05:55:36.773Z,1.20
2019-03-22T05:58:37.644Z,1.00
2019-03-22T06:01:38.445Z,1.20
2019-03-22T06:04:39.338Z,1.40
2019-03-22T06:07:40.405Z,1.50
2019-03-22T06:10:41.327Z,1.60
2019-03-22T06:13:44.298Z,1.70
2019-03-22T06:16:44.619Z,1.70
2019-03-22T06:19:45.695Z,1.80
2019-03-22T06:22:46.614Z,1.90
2019-03-22T06:25:47.677Z,2.00
2019-03-22T06:28:48.600Z,2.20
2019-03-22T06:31:49.625Z,2.30
2019-03-22T06:34:51.098Z,2.40
2019-03-22T06:37:51.959Z,2.50
2019-03-22T06:40:52.816Z,2.60
2019-03-22T06:43:53.770Z,2.80
2019-03-22T06:46:54.683Z,2.80
2019-03-22T06:49:55.714Z,3.00
2019-03-22T06:52:56.391Z,3.10
2019-03-22T06:55:57.270Z,3.30
2019-03-22T06:58:58.101Z,3.40
2019-03-22T07:01:59.095Z,3.40
2019-03-22T07:05:00.016Z,3.60
2019-03-22T07:08:00.898Z,3.80
2019-03-22T07:11:01.825Z,3.90
2019-03-22T07:14:02.922Z,4.10
2019-03-22T07:17:03.945Z,4.20
2019-03-22T07:20:04.540Z,4.40
2019-03-22T07:23:05.109Z,4.50
2019-03-22T07:26:06.067Z,4.60
2019-03-22T07:29:06.846Z,4.90
2019-03-22T07:32:08.231Z,5.10
2019-03-22T07:35:08.821Z,5.30
2019-03-22T07:38:09.946Z,5.30
2019-03-22T07:41:11.164Z,5.50
2019-03-22T07:44:12.658Z,5.80
2019-03-22T07:47:13.901Z,5.90
2019-03-22T07:50:15.013Z,6.30
2019-03-22T07:53:16.763Z,6.60
2019-03-22T07:56:17.445Z,6.80
2019-03-22T07:59:18.332Z,7.00
2019-03-22T08:02:18.639Z,7.30
2019-03-22T08:05:19.250Z,6.70
2019-03-22T08:08:20.248Z,6.40
2019-03-22T08:11:20.742Z,6.50
2019-03-22T08:14:21.379Z,6.70
2019-03-22T08:17:22.237Z,6.90
2019-03-22T08:20:22.929Z,7.60
2019-03-22T08:23:23.806Z,8.30
2019-03-22T08:26:24.590Z,8.60
2019-03-22T08:29:25.167Z,8.80
2019-03-22T08:32:26.424Z,9.20
2019-03-22T08:35:26.898Z,9.40
2019-03-22T08:38:27.823Z,10.00
2019-03-22T08:41:29.289Z,10.80
2019-03-22T08:44:30.593Z,10.40
2019-03-22T08:47:34.240Z,11.10
2019-03-22T08:50:33.456Z,11.70
2019-03-22T08:53:34.521Z,12.10
2019-03-22T08:56:36.287Z,12.50
2019-03-22T08:59:37.293Z,12.60
2019-03-22T09:02:38.902Z,12.50
2019-03-22T09:05:40.015Z,13.60
2019-03-22T09:08:41.680Z,13.20
2019-03-22T09:11:43.310Z,13.20
2019-03-22T09:14:45.131Z,12.70
2019-03-22T09:17:46.556Z,13.30
2019-03-22T09:20:47.854Z,13.50
2019-03-22T09:23:37.099Z,14.80
2019-03-22T09:26:47.554Z,15.30
2019-03-22T09:29:41.648Z,15.70
2019-03-22T09:32:42.828Z,16.50
2019-03-22T09:35:44.557Z,17.30
2019-03-22T09:38:45.725Z,17.90
2019-03-22T09:41:47.151Z,17.80
2019-03-22T09:44:48.131Z,18.20
2019-03-22T09:47:49.796Z,19.00
2019-03-22T09:50:51.503Z,19.10
2019-03-22T09:53:53.440Z,19.30
2019-03-22T09:56:54.327Z,19.10
2019-03-22T09:59:55.921Z,19.60
2019-03-22T10:02:57.555Z,19.10
2019-03-22T10:05:58.476Z,19.90
2019-03-22T10:09:03.927Z,19.40
2019-03-22T10:12:03.263Z,20.20
2019-03-22T10:15:04.946Z,20.70
2019-03-22T10:18:06.404Z,20.40
2019-03-22T10:21:07.885Z,21.20
2019-03-22T10:24:09.811Z,19.70
2019-03-22T10:27:14.793Z,21.10
2019-03-22T10:30:16.332Z,21.30
2019-03-22T10:33:22.986Z,21.90
2019-03-22T10:36:08.735Z,22.60
2019-03-22T10:39:09.947Z,23.00
2019-03-22T10:42:11.654Z,22.80
2019-03-22T10:45:13.174Z,23.60
2019-03-22T10:48:14.574Z,23.80
2019-03-22T10:51:16.206Z,23.70
2019-03-22T10:54:16.814Z,23.80
2019-03-22T10:57:17.585Z,24.30
2019-03-22T11:00:18.324Z,23.50
2019-03-22T11:03:20.231Z,24.10
2019-03-22T11:06:26.265Z,24.10
2019-03-22T11:09:25.329Z,23.70
2019-03-22T11:12:26.337Z,22.90
2019-03-22T11:18:49.713Z,23.20
2019-03-22T11:21:50.337Z,22.90
2019-03-22T11:24:51.816Z,24.30
2019-03-22T11:27:52.614Z,26.00
2019-03-22T11:30:53.458Z,25.90
2019-03-22T11:33:54.925Z,26.50
2019-03-22T11:36:56.421Z,26.30
2019-03-22T11:39:57.735Z,25.80
2019-03-22T11:43:08.023Z,26.90
2019-03-22T11:46:01.695Z,25.60
2019-03-22T11:51:47.072Z,25.50
2019-03-22T11:54:48.355Z,26.80
2019-03-22T11:57:50.345Z,27.00
2019-03-22T12:00:55.102Z,26.80
2019-03-22T12:03:56.450Z,27.00
2019-03-22T12:06:57.903Z,27.10
2019-03-22T12:09:58.618Z,26.80
2019-03-22T12:12:59.970Z,26.50
2019-03-22T12:16:00.699Z,25.30
2019-03-22T12:19:01.448Z,25.40
2019-03-22T12:22:02.804Z,26.40
2019-03-22T12:25:03.350Z,28.40
2019-03-22T12:28:04.568Z,27.40
2019-03-22T12:31:05.401Z,27.80
2019-03-22T12:34:06.185Z,27.70
2019-03-22T12:37:06.887Z,25.80
2019-03-22T12:40:07.809Z,28.30
2019-03-22T12:43:08.804Z,28.30
2019-03-22T12:46:10.071Z,29.10
2019-03-22T12:49:11.342Z,28.20
2019-03-22T12:52:12.131Z,27.90
2019-03-22T12:55:13.541Z,28.30
2019-03-22T12:58:15.189Z,27.90
2019-03-22T13:04:04.643Z,27.50
2019-03-22T13:07:05.212Z,29.20
2019-03-22T13:10:05.733Z,29.40
2019-03-22T13:13:07.347Z,29.20
2019-03-22T13:16:07.945Z,26.80
2019-03-22T13:19:09.491Z,26.90
2019-03-22T13:22:10.924Z,28.10
2019-03-22T13:25:12.428Z,28.50
2019-03-22T13:28:13.766Z,29.80
2019-03-22T13:31:14.523Z,29.50
2019-03-22T13:34:15.100Z,28.80
2019-03-22T13:37:16.577Z,29.70
2019-03-22T13:40:17.610Z,30.60
2019-03-22T13:43:18.169Z,29.60
2019-03-22T13:46:19.697Z,29.70
2019-03-22T13:49:20.902Z,30.30
2019-03-22T13:52:22.204Z,30.40
2019-03-22T13:55:23.600Z,28.60
2019-03-22T13:58:24.930Z,28.90
2019-03-22T14:01:26.266Z,29.80
2019-03-22T14:04:26.859Z,28.70
2019-03-22T14:07:27.650Z,29.20
2019-03-22T14:10:28.569Z,27.20
2019-03-22T14:13:30.044Z,27.00
2019-03-22T14:16:31.515Z,27.50
2019-03-22T14:19:32.979Z,27.30
2019-03-22T14:22:33.748Z,27.60
2019-03-22T14:25:35.211Z,27.30
2019-03-22T14:28:36.751Z,25.90
2019-03-22T14:31:38.131Z,26.30
2019-03-22T14:34:38.916Z,25.60
2019-03-22T14:37:40.781Z,25.90
2019-03-22T14:40:30.177Z,25.80
2019-03-22T14:43:38.337Z,26.30
2019-03-22T14:46:39.038Z,26.30
2019-03-22T14:49:39.670Z,26.00
2019-03-22T14:52:41.311Z,25.40
2019-03-22T14:55:42.575Z,25.40
2019-03-22T14:58:31.792Z,25.60
2019-03-22T15:01:40.353Z,25.30
2019-03-22T15:04:41.747Z,24.40
2019-03-22T15:07:43.433Z,25.60
2019-03-22T15:10:44.030Z,26.20
2019-03-22T15:17:07.478Z,26.20
2019-03-22T15:20:35.162Z,25.10
2019-03-22T15:24:03.208Z,25.30
2019-03-22T15:27:18.334Z,25.00
2019-03-22T15:30:39.198Z,24.40
2019-03-22T15:34:05.057Z,24.30
2019-03-22T15:37:26.247Z,24.40
2019-03-22T15:40:28.243Z,23.80
2019-03-22T15:43:29.562Z,24.10
2019-03-22T15:46:31.248Z,23.70
2019-03-22T15:49:32.582Z,23.70
2019-03-22T15:52:34.119Z,23.60
2019-03-22T15:55:35.809Z,23.10
2019-03-22T15:58:37.367Z,23.00
2019-03-22T16:01:39.130Z,22.60
2019-03-22T16:04:40.517Z,22.20
2019-03-22T16:07:41.546Z,21.80
2019-03-22T16:10:43.202Z,21.50
2019-03-22T16:13:44.770Z,21.30
2019-03-22T16:16:46.194Z,21.20
2019-03-22T16:19:47.306Z,21.00
2019-03-22T16:25:32.162Z,20.70
2019-03-22T16:28:33.825Z,20.70
2019-03-22T16:31:35.175Z,20.60
2019-03-22T16:34:36.535Z,20.10
2019-03-22T16:37:37.555Z,19.90
2019-03-22T16:40:39.265Z,19.90
2019-03-22T16:43:40.971Z,19.80
2019-03-22T16:46:42.239Z,19.70
2019-03-22T16:49:43.387Z,19.40
2019-03-22T16:52:44.875Z,19.20
2019-03-22T16:55:46.385Z,19.10
2019-03-22T16:58:47.517Z,19.10
2019-03-22T17:01:49.233Z,19.00
2019-03-22T17:04:50.569Z,18.70
2019-03-22T17:07:52.067Z,18.60
2019-03-22T17:10:53.636Z,18.50
2019-03-22T17:13:55.199Z,18.30
2019-03-22T17:16:56.205Z,18.10
2019-03-22T17:19:57.626Z,17.80
2019-03-22T17:22:59.318Z,17.50
2019-03-22T17:26:00.653Z,17.30
2019-03-22T17:29:02.082Z,17.10
2019-03-22T17:32:03.843Z,16.80
2019-03-22T17:35:04.729Z,16.60
2019-03-22T17:38:06.250Z,16.40
2019-03-22T17:41:07.950Z,16.20
2019-03-22T17:44:10.741Z,16.00
2019-03-22T17:47:12.230Z,15.80
2019-03-22T17:50:13.700Z,15.60
2019-03-22T17:53:15.506Z,15.40
2019-03-22T17:56:16.939Z,15.30
2019-03-22T17:59:18.446Z,15.10
2019-03-22T18:02:19.523Z,15.00
2019-03-22T18:05:20.293Z,14.70
2019-03-22T18:08:20.923Z,14.40
2019-03-22T18:11:21.635Z,14.40
2019-03-22T18:14:22.131Z,14.10
2019-03-22T18:17:22.415Z,14.10
2019-03-22T18:20:23.512Z,14.00
2019-03-22T18:23:24.259Z,13.70
2019-03-22T18:26:24.810Z,13.70
2019-03-22T18:29:26.938Z,13.40
2019-03-22T18:32:28.239Z,13.30
2019-03-22T18:35:29.513Z,12.90
2019-03-22T18:38:29.813Z,13.00
2019-03-22T18:41:30.299Z,12.80
2019-03-22T18:44:31.274Z,12.70
2019-03-22T18:47:31.604Z,12.70
2019-03-22T18:50:32.339Z,12.60
2019-03-22T18:53:33.546Z,12.50
2019-03-22T18:56:33.921Z,12.40
2019-03-22T18:59:34.212Z,12.20
2019-03-22T19:02:34.916Z,12.20
2019-03-22T19:05:35.587Z,12.00
2019-03-22T19:08:36.412Z,11.90
2019-03-22T19:11:36.739Z,11.70
2019-03-22T19:14:37.075Z,11.50
2019-03-22T19:17:37.861Z,11.40
2019-03-22T19:20:38.400Z,11.40
2019-03-22T19:23:38.961Z,11.40
2019-03-22T19:26:39.299Z,11.10
2019-03-22T19:29:39.714Z,10.90
2019-03-22T19:32:40.775Z,10.80
2019-03-22T19:35:41.633Z,10.80
2019-03-22T19:38:42.362Z,10.70
2019-03-22T19:41:42.806Z,10.60
2019-03-22T19:44:44.118Z,10.60
2019-03-22T19:47:45.397Z,10.60
2019-03-22T19:50:46.157Z,10.50
2019-03-22T19:53:46.796Z,10.30
2019-03-22T19:56:47.158Z,10.10
2019-03-22T19:59:47.698Z,10.10
2019-03-22T20:02:49.383Z,10.00
2019-03-22T20:05:50.468Z,9.90
2019-03-22T20:08:51.433Z,9.80
2019-03-22T20:11:52.869Z,9.70
2019-03-22T20:14:53.290Z,9.60
2019-03-22T20:17:54.009Z,9.60
2019-03-22T20:20:54.286Z,9.50
2019-03-22T20:23:54.985Z,9.40
2019-03-22T20:26:55.516Z,9.10
2019-03-22T20:29:56.090Z,8.90
2019-03-22T20:32:57.025Z,9.00
2019-03-22T20:35:57.672Z,8.90
2019-03-22T20:38:58.273Z,8.80
2019-03-22T20:41:58.615Z,8.80
2019-03-22T20:44:59.253Z,8.70
2019-03-22T20:47:59.750Z,8.50
2019-03-22T20:51:00.582Z,8.50
2019-03-22T20:54:01.054Z,8.40
2019-03-22T20:57:01.626Z,8.40
2019-03-22T21:00:02.094Z,8.30
2019-03-22T21:03:02.420Z,8.20
2019-03-22T21:06:04.563Z,8.10
2019-03-22T21:09:05.728Z,8.10
2019-03-22T21:12:06.964Z,8.00
2019-03-22T21:15:07.461Z,7.90
2019-03-22T21:18:08.319Z,7.90
2019-03-22T21:21:08.634Z,7.80
2019-03-22T21:24:09.122Z,7.70
2019-03-22T21:27:15.558Z,7.80
2019-03-22T21:30:12.684Z,7.70
2019-03-22T21:33:01.618Z,7.70
2019-03-22T21:36:09.510Z,7.60
2019-03-22T21:39:09.858Z,7.60
2019-03-22T21:42:10.180Z,7.20
2019-03-22T21:45:10.573Z,7.30
2019-03-22T21:48:10.865Z,7.30
2019-03-22T21:51:11.226Z,7.20
2019-03-22T21:54:11.977Z,7.20
2019-03-22T21:57:12.405Z,7.10
2019-03-22T22:00:12.964Z,7.10
2019-03-22T22:03:13.594Z,7.10
2019-03-22T22:06:14.828Z,6.80
2019-03-22T22:09:15.303Z,6.70
2019-03-22T22:12:16.467Z,6.70
2019-03-22T22:15:24.431Z,6.70
2019-03-22T22:18:32.344Z,6.50
2019-03-22T22:21:33.133Z,6.40
2019-03-22T22:24:33.523Z,6.40
2019-03-22T22:27:34.132Z,6.40
2019-03-22T22:30:35.009Z,6.30
2019-03-22T22:33:35.602Z,6.30
2019-03-22T22:36:35.906Z,6.30
2019-03-22T22:39:36.355Z,6.20
2019-03-22T22:42:37.461Z,6.10
2019-03-22T22:45:38.186Z,6.00
2019-03-22T22:48:38.818Z,6.00
2019-03-22T22:51:39.577Z,5.90
2019-03-22T22:54:40.218Z,5.90
2019-03-22T22:57:40.751Z,5.80
2019-03-22T23:00:41.597Z,5.70
2019-03-22T23:03:42.871Z,5.60
2019-03-22T23:06:43.486Z,5.70
2019-03-22T23:09:43.865Z,5.60
2019-03-22T23:12:44.329Z,5.60
2019-03-22T23:15:45.210Z,5.60
2019-03-22T23:18:45.590Z,5.40
2019-03-22T23:21:46.131Z,5.40
2019-03-22T23:24:47.214Z,5.40
2019-03-22T23:27:47.598Z,5.40
2019-03-22T23:30:47.924Z,5.30
2019-03-22T23:33:48.605Z,5.20
2019-03-22T23:36:49.336Z,5.20
2019-03-22T23:39:49.757Z,5.10
2019-03-22T23:42:50.741Z,5.10
2019-03-22T23:45:51.922Z,5.10
2019-03-22T23:48:52.761Z,5.00
2019-03-22T23:51:53.297Z,4.90
2019-03-22T23:54:54.031Z,4.90
2019-03-22T23:57:55.161Z,4.90
